Terminal Aerodrome Forecast
Issued by NWS

Home | Current Version | Previous Version | Text Only | Print | Product List | Glossary On
Versions: 1 2 3 4 5 6 7 8 9 10 11 12
128
FTUS45 KRIW 132323
TAFCPR
TAF
KCPR 132323Z 1400/1424 27011KT P6SM BKN080
     FM140200 25010KT P6SM SCT080
     FM140800 23008KT P6SM SKC
     FM141700 23018G26KT P6SM SCT250
     FM142300 28012G20KT P6SM SCT120 SCT250=

USA.gov is the U.S. government's official web portal to all federal, state and local government web resources and services.